createdAt,value
2019-06-27T00:00:26.118Z,1017.62
2019-06-27T00:01:05.088Z,1017.62
2019-06-27T00:02:05.067Z,1017.63
2019-06-27T00:03:05.035Z,1017.61
2019-06-27T00:04:05.017Z,1017.67
2019-06-27T00:05:04.992Z,1017.65
2019-06-27T00:06:25.951Z,1017.63
2019-06-27T00:07:04.937Z,1017.63
2019-06-27T00:08:04.916Z,1017.63
2019-06-27T00:09:04.881Z,1017.64
2019-06-27T00:10:04.851Z,1017.64
2019-06-27T00:11:04.826Z,1017.65
2019-06-27T00:12:25.798Z,1017.69
2019-06-27T00:13:04.773Z,1017.68
2019-06-27T00:14:04.761Z,1017.66
2019-06-27T00:15:04.727Z,1017.67
2019-06-27T00:16:04.694Z,1017.71
2019-06-27T00:17:04.663Z,1017.67
2019-06-27T00:18:25.636Z,1017.70
2019-06-27T00:19:04.618Z,1017.68
2019-06-27T00:20:04.592Z,1017.71
2019-06-27T00:21:04.567Z,1017.71
2019-06-27T00:22:04.532Z,1017.72
2019-06-27T00:23:04.510Z,1017.74
2019-06-27T00:24:25.488Z,1017.75
2019-06-27T00:25:04.458Z,1017.76
2019-06-27T00:26:04.431Z,1017.75
2019-06-27T00:27:04.395Z,1017.74
2019-06-27T00:28:04.373Z,1017.71
2019-06-27T00:29:04.348Z,1017.72
2019-06-27T00:30:25.315Z,1017.76
2019-06-27T00:31:04.293Z,1017.72
2019-06-27T00:32:04.268Z,1017.74
2019-06-27T00:33:04.236Z,1017.72
2019-06-27T00:34:04.218Z,1017.72
2019-06-27T00:35:04.192Z,1017.68
2019-06-27T00:36:25.166Z,1017.71
2019-06-27T00:37:04.136Z,1017.70
2019-06-27T00:38:04.119Z,1017.69
2019-06-27T00:39:04.076Z,1017.72
2019-06-27T00:40:04.047Z,1017.70
2019-06-27T00:41:04.025Z,1017.71
2019-06-27T00:42:24.994Z,1017.66
2019-06-27T00:43:03.973Z,1017.68
2019-06-27T00:44:03.938Z,1017.74
2019-06-27T00:45:03.919Z,1017.75
2019-06-27T00:46:03.904Z,1017.69
2019-06-27T00:47:03.859Z,1017.74
2019-06-27T00:48:24.835Z,1017.68
2019-06-27T00:49:03.803Z,1017.75
2019-06-27T00:50:03.786Z,1017.76
2019-06-27T00:51:03.762Z,1017.72
2019-06-27T00:52:03.714Z,1017.75
2019-06-27T00:53:03.706Z,1017.75
2019-06-27T00:54:24.672Z,1017.74
2019-06-27T00:55:03.651Z,1017.77
2019-06-27T00:56:03.643Z,1017.72
2019-06-27T00:57:13.452Z,1017.73
2019-06-27T00:58:03.569Z,1017.75
2019-06-27T00:59:03.536Z,1017.72
2019-06-27T01:00:24.504Z,1017.73
2019-06-27T01:01:03.486Z,1017.72
2019-06-27T01:02:03.450Z,1017.78
2019-06-27T01:03:03.426Z,1017.79
2019-06-27T01:04:03.408Z,1017.77
2019-06-27T01:05:03.369Z,1017.75
2019-06-27T01:06:24.339Z,1017.73
2019-06-27T01:07:03.315Z,1017.72
2019-06-27T01:08:03.293Z,1017.78
2019-06-27T01:09:03.251Z,1017.75
2019-06-27T01:10:03.226Z,1017.78
2019-06-27T01:11:03.200Z,1017.79
2019-06-27T01:12:24.187Z,1017.78
2019-06-27T01:13:03.143Z,1017.78
2019-06-27T01:14:03.123Z,1017.82
2019-06-27T01:15:03.099Z,1017.81
2019-06-27T01:16:03.106Z,1017.79
2019-06-27T01:17:03.040Z,1017.81
2019-06-27T01:18:24.015Z,1017.80
2019-06-27T01:19:02.998Z,1017.83
2019-06-27T01:20:02.990Z,1017.78
2019-06-27T01:21:02.945Z,1017.77
2019-06-27T01:22:02.901Z,1017.75
2019-06-27T01:23:02.875Z,1017.77
2019-06-27T01:24:23.841Z,1017.80
2019-06-27T01:25:02.823Z,1017.78
2019-06-27T01:26:02.788Z,1017.76
2019-06-27T01:27:02.762Z,1017.80
2019-06-27T01:28:02.731Z,1017.73
2019-06-27T01:29:02.708Z,1017.75
2019-06-27T01:30:23.671Z,1017.75
2019-06-27T01:31:02.655Z,1017.79
2019-06-27T01:32:02.628Z,1017.78
2019-06-27T01:33:02.592Z,1017.75
2019-06-27T01:34:02.554Z,1017.78
2019-06-27T01:35:04.389Z,1017.79
2019-06-27T01:36:23.497Z,1017.77
2019-06-27T01:37:02.507Z,1017.80
2019-06-27T01:38:02.453Z,1017.80
2019-06-27T01:39:02.423Z,1017.77
2019-06-27T01:40:02.421Z,1017.78
2019-06-27T01:41:02.382Z,1017.78
2019-06-27T01:42:23.349Z,1017.80
2019-06-27T01:43:02.313Z,1017.82
2019-06-27T01:44:02.289Z,1017.81
2019-06-27T01:45:02.249Z,1017.83
2019-06-27T01:46:02.234Z,1017.80
2019-06-27T01:47:02.214Z,1017.80
2019-06-27T01:48:23.167Z,1017.81
2019-06-27T01:49:02.149Z,1017.80
2019-06-27T01:50:02.122Z,1017.79
2019-06-27T01:51:02.101Z,1017.76
2019-06-27T01:52:02.060Z,1017.79
2019-06-27T01:53:02.037Z,1017.79
2019-06-27T01:54:23.027Z,1017.85
2019-06-27T01:55:01.972Z,1017.82
2019-06-27T01:56:01.943Z,1017.81
2019-06-27T01:57:01.926Z,1017.84
2019-06-27T01:58:01.900Z,1017.82
2019-06-27T01:59:01.864Z,1017.85
2019-06-27T02:00:22.838Z,1017.83
2019-06-27T02:01:01.799Z,1017.87
2019-06-27T02:02:01.801Z,1017.89
2019-06-27T02:03:01.763Z,1017.85
2019-06-27T02:04:01.733Z,1017.85
2019-06-27T02:05:01.773Z,1017.86
2019-06-27T02:06:22.670Z,1017.86
2019-06-27T02:07:01.654Z,1017.84
2019-06-27T02:08:01.621Z,1017.86
2019-06-27T02:09:01.600Z,1017.86
2019-06-27T02:10:01.555Z,1017.86
2019-06-27T02:11:01.525Z,1017.83
2019-06-27T02:12:22.499Z,1017.84
2019-06-27T02:13:01.474Z,1017.87
2019-06-27T02:14:01.451Z,1017.88
2019-06-27T02:15:01.417Z,1017.90
2019-06-27T02:16:01.391Z,1017.91
2019-06-27T02:17:01.364Z,1017.91
2019-06-27T02:18:22.334Z,1017.97
2019-06-27T02:19:01.294Z,1017.94
2019-06-27T02:20:01.279Z,1017.92
2019-06-27T02:21:01.248Z,1017.96
2019-06-27T02:22:01.229Z,1017.97
2019-06-27T02:23:01.191Z,1017.98
2019-06-27T02:24:22.159Z,1017.95
2019-06-27T02:25:01.133Z,1017.97
2019-06-27T02:26:01.110Z,1017.97
2019-06-27T02:27:01.095Z,1017.91
2019-06-27T02:28:04.365Z,1017.94
2019-06-27T02:29:01.017Z,1017.95
2019-06-27T02:30:21.992Z,1017.92
2019-06-27T02:31:00.981Z,1017.94
2019-06-27T02:32:00.931Z,1017.93
2019-06-27T02:33:00.902Z,1017.97
2019-06-27T02:34:06.103Z,1018.00
2019-06-27T02:35:00.869Z,1017.98
2019-06-27T02:36:21.806Z,1017.97
2019-06-27T02:37:00.792Z,1017.98
2019-06-27T02:38:00.773Z,1018.00
2019-06-27T02:39:00.742Z,1018.01
2019-06-27T02:40:00.711Z,1018.06
2019-06-27T02:41:00.671Z,1018.10
2019-06-27T02:42:21.670Z,1018.08
2019-06-27T02:43:00.617Z,1018.06
2019-06-27T02:44:00.597Z,1018.08
2019-06-27T02:45:00.580Z,1018.09
2019-06-27T02:46:00.536Z,1018.06
2019-06-27T02:47:00.509Z,1018.13
2019-06-27T02:48:21.473Z,1018.12
2019-06-27T02:49:00.455Z,1018.12
2019-06-27T02:50:00.417Z,1018.10
2019-06-27T02:51:00.403Z,1018.14
2019-06-27T02:52:00.364Z,1018.10
2019-06-27T02:53:00.342Z,1018.11
2019-06-27T02:54:21.317Z,1018.11
2019-06-27T02:55:00.282Z,1018.12
2019-06-27T02:56:00.263Z,1018.14
2019-06-27T02:57:00.228Z,1018.16
2019-06-27T02:58:00.191Z,1018.19
2019-06-27T02:59:00.162Z,1018.16
2019-06-27T03:00:21.143Z,1018.22
2019-06-27T03:01:00.113Z,1018.23
2019-06-27T03:02:00.086Z,1018.23
2019-06-27T03:03:00.071Z,1018.22
2019-06-27T03:04:00.054Z,1018.18
2019-06-27T03:04:59.993Z,1018.19
2019-06-27T03:06:20.967Z,1018.18
2019-06-27T03:06:59.947Z,1018.16
2019-06-27T03:07:59.922Z,1018.19
2019-06-27T03:08:59.884Z,1018.18
2019-06-27T03:09:59.855Z,1018.18
2019-06-27T03:10:59.844Z,1018.18
2019-06-27T03:12:20.801Z,1018.21
2019-06-27T03:12:59.774Z,1018.19
2019-06-27T03:13:59.739Z,1018.18
2019-06-27T03:14:59.717Z,1018.18
2019-06-27T03:15:59.683Z,1018.13
2019-06-27T03:16:59.655Z,1018.16
2019-06-27T03:18:20.624Z,1018.16
2019-06-27T03:18:59.615Z,1018.18
2019-06-27T03:19:59.573Z,1018.18
2019-06-27T03:20:59.544Z,1018.13
2019-06-27T03:21:59.529Z,1018.13
2019-06-27T03:22:59.482Z,1018.10
2019-06-27T03:24:20.461Z,1018.12
2019-06-27T03:24:59.427Z,1018.15
2019-06-27T03:25:59.398Z,1018.17
2019-06-27T03:26:59.369Z,1018.21
2019-06-27T03:27:59.365Z,1018.22
2019-06-27T03:28:59.314Z,1018.21
2019-06-27T03:30:20.319Z,1018.26
2019-06-27T03:30:59.267Z,1018.21
2019-06-27T03:31:59.234Z,1018.22
2019-06-27T03:32:59.209Z,1018.23
2019-06-27T03:33:59.168Z,1018.24
2019-06-27T03:34:59.146Z,1018.22
2019-06-27T03:36:20.109Z,1018.24
2019-06-27T03:36:59.083Z,1018.22
2019-06-27T03:37:59.069Z,1018.24
2019-06-27T03:38:59.024Z,1018.23
2019-06-27T03:39:59.023Z,1018.24
2019-06-27T03:40:58.970Z,1018.26
2019-06-27T03:42:19.960Z,1018.26
2019-06-27T03:42:58.911Z,1018.28
2019-06-27T03:43:58.886Z,1018.27
2019-06-27T03:44:58.864Z,1018.27
2019-06-27T03:45:58.818Z,1018.30
2019-06-27T03:46:58.797Z,1018.24
2019-06-27T03:48:19.759Z,1018.33
2019-06-27T03:48:58.743Z,1018.30
2019-06-27T03:49:58.707Z,1018.32
2019-06-27T03:50:58.671Z,1018.38
2019-06-27T03:51:58.646Z,1018.38
2019-06-27T03:52:58.610Z,1018.39
2019-06-27T03:54:19.591Z,1018.38
2019-06-27T03:54:58.564Z,1018.37
2019-06-27T03:55:58.527Z,1018.33
2019-06-27T03:56:58.499Z,1018.32
2019-06-27T03:57:58.475Z,1018.38
2019-06-27T03:59:11.523Z,1018.39
2019-06-27T04:00:19.425Z,1018.40
2019-06-27T04:00:58.392Z,1018.40
2019-06-27T04:01:58.352Z,1018.42
2019-06-27T04:02:58.335Z,1018.46
2019-06-27T04:03:58.318Z,1018.45
2019-06-27T04:04:58.276Z,1018.47
2019-06-27T04:06:19.241Z,1018.45
2019-06-27T04:06:58.222Z,1018.41
2019-06-27T04:07:58.170Z,1018.42
2019-06-27T04:08:58.161Z,1018.44
2019-06-27T04:09:58.130Z,1018.41
2019-06-27T04:10:58.101Z,1018.43
2019-06-27T04:12:19.070Z,1018.43
2019-06-27T04:12:58.036Z,1018.42
2019-06-27T04:13:58.004Z,1018.40
2019-06-27T04:14:57.981Z,1018.38
2019-06-27T04:15:57.958Z,1018.43
2019-06-27T04:16:57.930Z,1018.41
2019-06-27T04:18:18.907Z,1018.39
2019-06-27T04:18:57.861Z,1018.40
2019-06-27T04:19:57.828Z,1018.45
2019-06-27T04:20:57.813Z,1018.44
2019-06-27T04:21:57.778Z,1018.44
2019-06-27T04:22:57.753Z,1018.42
2019-06-27T04:24:18.716Z,1018.42
2019-06-27T04:24:57.682Z,1018.43
2019-06-27T04:25:57.658Z,1018.42
2019-06-27T04:26:57.629Z,1018.48
2019-06-27T04:28:00.075Z,1018.49
2019-06-27T04:28:57.574Z,1018.50
2019-06-27T04:30:18.542Z,1018.49
2019-06-27T04:30:57.511Z,1018.46
2019-06-27T04:31:57.487Z,1018.48
2019-06-27T04:32:57.455Z,1018.50
2019-06-27T04:33:57.427Z,1018.52
2019-06-27T04:34:57.395Z,1018.50
2019-06-27T04:36:18.378Z,1018.49
2019-06-27T04:36:57.339Z,1018.48
2019-06-27T04:37:57.312Z,1018.47
2019-06-27T04:38:57.272Z,1018.45
2019-06-27T04:39:57.251Z,1018.46
2019-06-27T04:40:57.213Z,1018.49
2019-06-27T04:42:18.184Z,1018.48
2019-06-27T04:42:57.162Z,1018.51
2019-06-27T04:43:57.147Z,1018.53
2019-06-27T04:44:57.098Z,1018.53
2019-06-27T04:45:57.079Z,1018.55
2019-06-27T04:46:57.052Z,1018.53
2019-06-27T04:48:18.005Z,1018.55
2019-06-27T04:48:56.989Z,1018.58
2019-06-27T04:49:56.950Z,1018.55
2019-06-27T04:50:56.955Z,1018.59
2019-06-27T04:51:56.883Z,1018.54
2019-06-27T04:52:56.862Z,1018.57
2019-06-27T04:54:17.845Z,1018.57
2019-06-27T04:54:56.810Z,1018.55
2019-06-27T04:55:56.780Z,1018.58
2019-06-27T04:56:56.756Z,1018.57
2019-06-27T04:57:56.742Z,1018.59
2019-06-27T04:58:56.715Z,1018.55
2019-06-27T05:00:17.666Z,1018.57
2019-06-27T05:00:56.624Z,1018.52
2019-06-27T05:01:56.606Z,1018.55
2019-06-27T05:02:56.592Z,1018.56
2019-06-27T05:03:56.544Z,1018.57
2019-06-27T05:04:56.515Z,1018.58
2019-06-27T05:06:17.485Z,1018.62
2019-06-27T05:06:56.466Z,1018.62
2019-06-27T05:07:56.425Z,1018.60
2019-06-27T05:08:56.389Z,1018.64
2019-06-27T05:09:56.369Z,1018.63
2019-06-27T05:10:56.348Z,1018.64
2019-06-27T05:12:17.326Z,1018.65
2019-06-27T05:12:56.280Z,1018.69
2019-06-27T05:13:56.268Z,1018.67
2019-06-27T05:14:56.211Z,1018.67
2019-06-27T05:15:56.195Z,1018.68
2019-06-27T05:16:56.167Z,1018.67
2019-06-27T05:18:17.139Z,1018.69
2019-06-27T05:18:56.103Z,1018.67
2019-06-27T05:19:56.097Z,1018.68
2019-06-27T05:20:56.059Z,1018.71
2019-06-27T05:21:56.010Z,1018.73
2019-06-27T05:22:55.982Z,1018.74
2019-06-27T05:24:16.983Z,1018.73
2019-06-27T05:24:55.927Z,1018.73
2019-06-27T05:25:55.896Z,1018.73
2019-06-27T05:26:55.869Z,1018.80
2019-06-27T05:27:55.869Z,1018.79
2019-06-27T05:28:55.823Z,1018.83
2019-06-27T05:30:16.777Z,1018.81
2019-06-27T05:30:55.833Z,1018.78
2019-06-27T05:31:55.730Z,1018.81
2019-06-27T05:32:55.693Z,1018.81
2019-06-27T05:33:55.667Z,1018.84
2019-06-27T05:34:55.627Z,1018.81
2019-06-27T05:36:16.610Z,1018.84
2019-06-27T05:36:55.610Z,1018.84
2019-06-27T05:37:55.556Z,1018.88
2019-06-27T05:38:55.540Z,1018.88
2019-06-27T05:39:55.508Z,1018.91
2019-06-27T05:40:55.463Z,1018.91
2019-06-27T05:42:16.430Z,1018.91
2019-06-27T05:42:55.393Z,1018.89
2019-06-27T05:43:55.379Z,1018.87
2019-06-27T05:44:55.341Z,1018.88
2019-06-27T05:45:55.343Z,1018.98
2019-06-27T05:46:55.276Z,1018.95
2019-06-27T05:48:16.241Z,1018.97
2019-06-27T05:48:55.231Z,1019.00
2019-06-27T05:49:55.196Z,1019.00
2019-06-27T05:50:55.162Z,1019.02
2019-06-27T05:51:55.127Z,1019.01
2019-06-27T05:52:55.109Z,1018.99
2019-06-27T05:54:16.078Z,1019.01
2019-06-27T05:54:55.051Z,1019.04
2019-06-27T05:55:55.018Z,1019.03
2019-06-27T05:56:54.986Z,1019.04
2019-06-27T05:57:54.958Z,1019.04
2019-06-27T05:58:54.926Z,1019.04
2019-06-27T06:00:27.356Z,1019.05
2019-06-27T06:00:54.876Z,1019.11
2019-06-27T06:01:54.859Z,1019.11
2019-06-27T06:02:54.819Z,1019.08
2019-06-27T06:03:54.786Z,1019.08
2019-06-27T06:04:54.766Z,1019.06
2019-06-27T06:06:15.733Z,1019.11
2019-06-27T06:06:54.698Z,1019.12
2019-06-27T06:07:54.668Z,1019.13
2019-06-27T06:08:54.648Z,1019.14
2019-06-27T06:09:54.626Z,1019.14
2019-06-27T06:10:54.602Z,1019.11
2019-06-27T06:12:15.558Z,1019.11
2019-06-27T06:12:54.523Z,1019.08
2019-06-27T06:13:54.496Z,1019.08
2019-06-27T06:14:54.458Z,1019.07
2019-06-27T06:15:54.437Z,1019.13
2019-06-27T06:16:54.414Z,1019.14
2019-06-27T06:18:15.404Z,1019.13
2019-06-27T06:18:54.349Z,1019.13
2019-06-27T06:19:54.320Z,1019.13
2019-06-27T06:20:54.296Z,1019.13
2019-06-27T06:21:54.286Z,1019.13
2019-06-27T06:22:54.233Z,1019.09
2019-06-27T06:24:15.219Z,1019.08
2019-06-27T06:24:54.167Z,1019.08
2019-06-27T06:25:54.149Z,1019.09
2019-06-27T06:26:54.134Z,1019.10
2019-06-27T06:27:54.094Z,1019.14
2019-06-27T06:28:54.068Z,1019.08
2019-06-27T06:30:15.034Z,1019.09
2019-06-27T06:30:54.015Z,1019.13
2019-06-27T06:31:54.005Z,1019.09
2019-06-27T06:32:53.939Z,1019.12
2019-06-27T06:33:54.020Z,1019.07
2019-06-27T06:34:53.894Z,1019.08
2019-06-27T06:36:14.863Z,1019.10
2019-06-27T06:36:53.844Z,1019.09
2019-06-27T06:37:53.800Z,1019.14
2019-06-27T06:38:53.780Z,1019.16
2019-06-27T06:39:53.748Z,1019.17
2019-06-27T06:40:53.729Z,1019.16
2019-06-27T06:42:14.684Z,1019.21
2019-06-27T06:42:56.967Z,1019.21
2019-06-27T06:43:53.643Z,1019.20
2019-06-27T06:44:53.598Z,1019.17
2019-06-27T06:45:53.574Z,1019.21
2019-06-27T06:46:53.540Z,1019.20
2019-06-27T06:48:14.510Z,1019.19
2019-06-27T06:48:53.484Z,1019.21
2019-06-27T06:49:53.465Z,1019.23
2019-06-27T06:50:53.429Z,1019.22
2019-06-27T06:51:53.411Z,1019.22
2019-06-27T06:52:53.362Z,1019.24
2019-06-27T06:54:14.340Z,1019.21
2019-06-27T06:54:53.310Z,1019.23
2019-06-27T06:55:53.281Z,1019.21
2019-06-27T06:56:53.255Z,1019.22
2019-06-27T06:57:53.220Z,1019.22
2019-06-27T06:58:53.217Z,1019.25
2019-06-27T07:00:14.173Z,1019.30
2019-06-27T07:01:01.713Z,1019.30
2019-06-27T07:01:53.117Z,1019.31
2019-06-27T07:02:53.122Z,1019.34
2019-06-27T07:03:53.055Z,1019.33
2019-06-27T07:04:53.025Z,1019.33
2019-06-27T07:06:14.001Z,1019.32
2019-06-27T07:06:52.968Z,1019.38
2019-06-27T07:07:52.931Z,1019.37
2019-06-27T07:08:52.917Z,1019.38
2019-06-27T07:09:52.886Z,1019.33
2019-06-27T07:10:52.852Z,1019.34
2019-06-27T07:12:13.833Z,1019.36
2019-06-27T07:12:52.814Z,1019.42
2019-06-27T07:13:52.821Z,1019.41
2019-06-27T07:14:52.753Z,1019.43
2019-06-27T07:15:52.718Z,1019.42
2019-06-27T07:16:52.672Z,1019.42
2019-06-27T07:18:13.656Z,1019.39
2019-06-27T07:18:52.618Z,1019.41
2019-06-27T07:19:52.583Z,1019.41
2019-06-27T07:20:52.566Z,1019.40
2019-06-27T07:21:52.535Z,1019.43
2019-06-27T07:22:52.502Z,1019.40
2019-06-27T07:24:13.468Z,1019.42
2019-06-27T07:24:52.553Z,1019.48
2019-06-27T07:25:52.409Z,1019.47
2019-06-27T07:26:52.398Z,1019.45
2019-06-27T07:27:52.367Z,1019.46
2019-06-27T07:28:52.328Z,1019.50
2019-06-27T07:30:13.322Z,1019.48
2019-06-27T07:30:52.281Z,1019.48
2019-06-27T07:31:52.244Z,1019.46
2019-06-27T07:32:52.219Z,1019.46
2019-06-27T07:33:52.196Z,1019.47
2019-06-27T07:34:52.182Z,1019.45
2019-06-27T07:36:13.131Z,1019.44
2019-06-27T07:36:52.104Z,1019.43
2019-06-27T07:37:52.063Z,1019.42
2019-06-27T07:38:52.048Z,1019.37
2019-06-27T07:39:52.085Z,1019.41
2019-06-27T07:40:51.993Z,1019.38
2019-06-27T07:42:12.958Z,1019.41
2019-06-27T07:42:51.934Z,1019.42
2019-06-27T07:43:51.913Z,1019.43
2019-06-27T07:44:51.889Z,1019.42
2019-06-27T07:45:51.859Z,1019.38
2019-06-27T07:46:51.817Z,1019.43
2019-06-27T07:48:12.793Z,1019.42
2019-06-27T07:48:51.760Z,1019.39
2019-06-27T07:49:51.733Z,1019.43
2019-06-27T07:50:51.736Z,1019.42
2019-06-27T07:51:51.674Z,1019.46
2019-06-27T07:52:51.656Z,1019.45
2019-06-27T07:54:12.644Z,1019.42
2019-06-27T07:54:51.585Z,1019.45
2019-06-27T07:55:51.560Z,1019.46
2019-06-27T07:56:51.554Z,1019.46
2019-06-27T07:57:51.509Z,1019.44
2019-06-27T07:58:51.475Z,1019.49
2019-06-27T08:00:12.457Z,1019.48
2019-06-27T08:00:51.429Z,1019.48
2019-06-27T08:01:51.401Z,1019.48
2019-06-27T08:02:51.380Z,1019.47
2019-06-27T08:03:51.340Z,1019.49
2019-06-27T08:04:51.319Z,1019.48
2019-06-27T08:06:12.287Z,1019.46
2019-06-27T08:06:51.263Z,1019.45
2019-06-27T08:07:51.252Z,1019.41
2019-06-27T08:08:51.205Z,1019.44
2019-06-27T08:09:51.170Z,1019.41
2019-06-27T08:10:51.140Z,1019.43
2019-06-27T08:12:12.124Z,1019.42
2019-06-27T08:12:51.086Z,1019.46
2019-06-27T08:13:51.065Z,1019.46
2019-06-27T08:14:51.034Z,1019.45
2019-06-27T08:15:50.997Z,1019.46
2019-06-27T08:16:50.994Z,1019.51
2019-06-27T08:18:11.974Z,1019.46
2019-06-27T08:18:50.935Z,1019.44
2019-06-27T08:19:50.899Z,1019.44
2019-06-27T08:20:50.859Z,1019.44
2019-06-27T08:21:50.833Z,1019.43
2019-06-27T08:22:50.801Z,1019.45
2019-06-27T08:24:11.769Z,1019.40
2019-06-27T08:24:50.755Z,1019.42
2019-06-27T08:25:50.719Z,1019.42
2019-06-27T08:26:50.708Z,1019.42
2019-06-27T08:27:50.667Z,1019.44
2019-06-27T08:28:50.823Z,1019.43
2019-06-27T08:30:11.606Z,1019.38
2019-06-27T08:30:50.608Z,1019.43
2019-06-27T08:31:52.125Z,1019.40
2019-06-27T08:32:50.523Z,1019.38
2019-06-27T08:33:50.519Z,1019.41
2019-06-27T08:34:50.510Z,1019.38
2019-06-27T08:36:11.434Z,1019.37
2019-06-27T08:36:50.414Z,1019.40
2019-06-27T08:37:50.392Z,1019.41
2019-06-27T08:38:50.361Z,1019.41
2019-06-27T08:39:50.328Z,1019.44
2019-06-27T08:40:50.317Z,1019.39
2019-06-27T08:42:11.269Z,1019.36
2019-06-27T08:42:50.252Z,1019.39
2019-06-27T08:43:50.217Z,1019.42
2019-06-27T08:44:50.187Z,1019.39
2019-06-27T08:45:50.176Z,1019.34
2019-06-27T08:46:50.141Z,1019.37
2019-06-27T08:48:11.123Z,1019.40
2019-06-27T08:48:50.102Z,1019.41
2019-06-27T08:49:50.062Z,1019.44
2019-06-27T08:50:50.022Z,1019.42
2019-06-27T08:51:50.007Z,1019.39
2019-06-27T08:52:49.992Z,1019.42
2019-06-27T08:54:10.969Z,1019.47
2019-06-27T08:54:49.917Z,1019.44
2019-06-27T08:55:49.894Z,1019.45
2019-06-27T08:56:49.859Z,1019.45
2019-06-27T08:57:49.841Z,1019.47
2019-06-27T08:58:49.809Z,1019.44
2019-06-27T09:00:10.775Z,1019.47
2019-06-27T09:00:49.758Z,1019.41
2019-06-27T09:01:49.724Z,1019.42
2019-06-27T09:02:49.708Z,1019.42
2019-06-27T09:03:49.677Z,1019.40
2019-06-27T09:04:49.656Z,1019.37
2019-06-27T09:06:10.614Z,1019.37
2019-06-27T09:06:49.591Z,1019.33
2019-06-27T09:07:49.580Z,1019.34
2019-06-27T09:08:49.537Z,1019.34
2019-06-27T09:09:49.508Z,1019.35
2019-06-27T09:10:49.488Z,1019.34
2019-06-27T09:12:10.481Z,1019.36
2019-06-27T09:12:49.441Z,1019.34
2019-06-27T09:13:49.393Z,1019.35
2019-06-27T09:14:49.382Z,1019.37
2019-06-27T09:15:49.343Z,1019.37
2019-06-27T09:16:49.326Z,1019.34
2019-06-27T09:18:10.283Z,1019.32
2019-06-27T09:18:49.261Z,1019.35
2019-06-27T09:19:49.243Z,1019.34
2019-06-27T09:20:49.211Z,1019.28
2019-06-27T09:21:49.180Z,1019.25
2019-06-27T09:22:49.156Z,1019.30
2019-06-27T09:24:10.129Z,1019.26
2019-06-27T09:24:49.100Z,1019.32
2019-06-27T09:25:49.074Z,1019.26
2019-06-27T09:26:49.044Z,1019.26
2019-06-27T09:27:49.019Z,1019.30
2019-06-27T09:28:49.005Z,1019.26
2019-06-27T09:30:09.968Z,1019.23
2019-06-27T09:30:48.949Z,1019.28
2019-06-27T09:31:48.915Z,1019.28
2019-06-27T09:32:48.889Z,1019.28
2019-06-27T09:33:48.860Z,1019.24
2019-06-27T09:34:48.842Z,1019.29
2019-06-27T09:36:09.804Z,1019.26
2019-06-27T09:36:48.781Z,1019.23
2019-06-27T09:37:48.746Z,1019.24
2019-06-27T09:38:48.721Z,1019.24
2019-06-27T09:39:48.705Z,1019.20
2019-06-27T09:40:48.661Z,1019.22
2019-06-27T09:42:09.637Z,1019.19
2019-06-27T09:42:48.621Z,1019.21
2019-06-27T09:43:48.585Z,1019.23
2019-06-27T09:44:48.560Z,1019.24
2019-06-27T09:45:48.538Z,1019.21
2019-06-27T09:46:48.528Z,1019.23
2019-06-27T09:48:09.482Z,1019.24
2019-06-27T09:48:48.466Z,1019.25
2019-06-27T09:49:48.437Z,1019.27
2019-06-27T09:50:48.407Z,1019.22
2019-06-27T09:51:48.378Z,1019.25
2019-06-27T09:52:48.354Z,1019.27
2019-06-27T09:54:09.320Z,1019.27
2019-06-27T09:54:48.366Z,1019.26
2019-06-27T09:55:48.282Z,1019.20
2019-06-27T09:56:48.247Z,1019.22
2019-06-27T09:57:48.213Z,1019.21
2019-06-27T09:58:48.203Z,1019.20
2019-06-27T10:00:09.187Z,1019.21
2019-06-27T10:00:48.157Z,1019.19
2019-06-27T10:01:48.111Z,1019.19
2019-06-27T10:02:48.117Z,1019.13
2019-06-27T10:03:48.067Z,1019.17
2019-06-27T10:04:48.101Z,1019.19
2019-06-27T10:06:09.016Z,1019.14
2019-06-27T10:06:47.981Z,1019.18
2019-06-27T10:07:47.962Z,1019.16
2019-06-27T10:08:47.951Z,1019.20
2019-06-27T10:09:47.914Z,1019.20
2019-06-27T10:10:47.891Z,1019.13
2019-06-27T10:12:08.851Z,1019.09
2019-06-27T10:12:47.823Z,1019.03
2019-06-27T10:13:47.807Z,1019.10
2019-06-27T10:14:47.789Z,1019.04
2019-06-27T10:15:47.763Z,1019.05
2019-06-27T10:16:47.742Z,1019.07
2019-06-27T10:18:08.713Z,1019.07
2019-06-27T10:18:47.694Z,1019.09
2019-06-27T10:19:47.666Z,1019.03
2019-06-27T10:20:47.642Z,1019.07
2019-06-27T10:21:47.618Z,1019.07
2019-06-27T10:22:47.585Z,1019.09
2019-06-27T10:24:08.562Z,1019.07
2019-06-27T10:24:47.549Z,1019.14
2019-06-27T10:25:47.510Z,1019.14
2019-06-27T10:26:47.493Z,1019.13
2019-06-27T10:27:47.507Z,1019.13
2019-06-27T10:28:47.443Z,1019.12
2019-06-27T10:30:08.432Z,1019.11
2019-06-27T10:30:49.268Z,1019.10
2019-06-27T10:31:47.368Z,1019.08
2019-06-27T10:32:58.222Z,1019.09
2019-06-27T10:33:47.335Z,1019.08
2019-06-27T10:34:47.315Z,1019.04
2019-06-27T10:36:08.284Z,1019.07
2019-06-27T10:36:47.256Z,1018.96
2019-06-27T10:37:47.234Z,1019.04
2019-06-27T10:38:47.223Z,1019.04
2019-06-27T10:39:47.210Z,1019.04
2019-06-27T10:40:47.169Z,1019.06
2019-06-27T10:42:08.149Z,1019.02
2019-06-27T10:42:47.108Z,1018.99
2019-06-27T10:43:47.111Z,1019.03
2019-06-27T10:44:47.130Z,1018.94
2019-06-27T10:45:47.053Z,1018.97
2019-06-27T10:46:47.014Z,1018.99
2019-06-27T10:48:08.080Z,1018.98
2019-06-27T10:48:46.973Z,1018.94
2019-06-27T10:49:46.956Z,1019.00
2019-06-27T10:50:46.933Z,1018.91
2019-06-27T10:51:46.916Z,1018.99
2019-06-27T10:52:46.898Z,1018.96
2019-06-27T10:54:07.871Z,1018.91
2019-06-27T10:54:46.851Z,1018.90
2019-06-27T10:55:46.829Z,1018.87
2019-06-27T10:56:46.797Z,1018.90
2019-06-27T10:57:46.775Z,1018.85
2019-06-27T10:58:46.740Z,1018.88
2019-06-27T11:00:07.734Z,1018.85
2019-06-27T11:00:46.697Z,1018.86
2019-06-27T11:01:46.671Z,1018.86
2019-06-27T11:02:46.684Z,1018.83
2019-06-27T11:03:46.631Z,1018.84
2019-06-27T11:04:46.655Z,1018.85
2019-06-27T11:06:07.606Z,1018.90
2019-06-27T11:06:46.567Z,1018.94
2019-06-27T11:07:46.545Z,1018.87
2019-06-27T11:08:46.516Z,1018.90
2019-06-27T11:09:49.996Z,1018.83
2019-06-27T11:10:46.481Z,1018.83
2019-06-27T11:12:07.447Z,1018.88
2019-06-27T11:12:46.424Z,1018.83
2019-06-27T11:13:58.199Z,1018.85
2019-06-27T11:14:58.644Z,1018.79
2019-06-27T11:15:49.241Z,1018.79
2019-06-27T11:16:46.335Z,1018.82
2019-06-27T11:18:07.323Z,1018.81
2019-06-27T11:18:46.292Z,1018.78
2019-06-27T11:19:52.427Z,1018.80
2019-06-27T11:20:46.254Z,1018.76
2019-06-27T11:21:46.238Z,1018.77
2019-06-27T11:22:46.235Z,1018.79
2019-06-27T11:24:07.187Z,1018.79
2019-06-27T11:24:46.171Z,1018.78
2019-06-27T11:25:46.156Z,1018.76
2019-06-27T11:26:46.116Z,1018.79
2019-06-27T11:27:46.111Z,1018.73
2019-06-27T11:28:46.066Z,1018.74
2019-06-27T11:30:07.092Z,1018.71
2019-06-27T11:30:46.032Z,1018.74
2019-06-27T11:31:46.027Z,1018.74
2019-06-27T11:32:45.992Z,1018.70
2019-06-27T11:33:45.972Z,1018.69
2019-06-27T11:34:45.947Z,1018.69
2019-06-27T11:36:06.921Z,1018.70
2019-06-27T11:36:46.740Z,1018.67
2019-06-27T11:37:45.882Z,1018.67
2019-06-27T11:38:45.852Z,1018.72
2019-06-27T11:39:45.840Z,1018.67
2019-06-27T11:40:45.810Z,1018.67
2019-06-27T11:42:06.795Z,1018.65
2019-06-27T11:42:45.766Z,1018.65
2019-06-27T11:43:45.755Z,1018.67
2019-06-27T11:44:45.732Z,1018.66
2019-06-27T11:45:45.722Z,1018.71
2019-06-27T11:46:45.679Z,1018.72
2019-06-27T11:48:06.653Z,1018.68
2019-06-27T11:48:45.635Z,1018.71
2019-06-27T11:49:45.622Z,1018.71
2019-06-27T11:50:45.594Z,1018.71
2019-06-27T11:51:45.579Z,1018.68
2019-06-27T11:52:47.274Z,1018.69
2019-06-27T11:54:06.540Z,1018.63
2019-06-27T11:54:45.518Z,1018.65
2019-06-27T11:55:45.497Z,1018.69
2019-06-27T11:56:45.463Z,1018.62
2019-06-27T11:57:45.458Z,1018.63
2019-06-27T11:58:45.443Z,1018.67
2019-06-27T12:00:06.394Z,1018.64
2019-06-27T12:00:45.385Z,1018.61
2019-06-27T12:01:45.364Z,1018.61
2019-06-27T12:02:45.335Z,1018.64
2019-06-27T12:03:49.745Z,1018.65
2019-06-27T12:04:45.299Z,1018.63